Time;durP1;ratioP1;P1;durP2;ratioP2;P2;SDS_P1;SDS_P2;PMS_P1;PMS_P2;Temp;Humidity;BMP_temperature;BMP_pressure;BME280_temperature;BME280_humidity;BME280_pressure;Samples;Min_cycle;Max_cycle;Signal;HPM_P1;HPM_P2
2021/05/18 00:00:21;;;;;;;3.53;0.32;;;8.60;99.90;;;;;;4945239;29;20042;-78
2021/05/18 00:02:46;;;;;;;2.05;0.60;;;8.50;99.90;;;;;;4942182;28;20430;-78
2021/05/18 00:05:14;;;;;;;2.92;1.10;;;8.60;99.90;;;;;;4939686;28;20039;-79
2021/05/18 00:07:46;;;;;;;5.78;1.00;;;8.70;99.90;;;;;;4941717;28;20048;-78
2021/05/18 00:12:56;;;;;;;2.08;0.80;;;8.70;99.90;;;;;;4940097;29;20067;-78
2021/05/18 00:15:22;;;;;;;4.15;0.65;;;8.60;99.90;;;;;;4937089;29;20462;-78
2021/05/18 00:17:48;;;;;;;3.13;0.50;;;8.60;99.90;;;;;;4939585;29;20512;-78
2021/05/18 00:20:17;;;;;;;2.58;0.50;;;8.70;99.90;;;;;;4943459;28;20048;-79
2021/05/18 00:22:43;;;;;;;2.42;0.40;;;8.70;99.90;;;;;;4945477;29;20421;-78
2021/05/18 00:25:10;;;;;;;3.25;0.50;;;8.60;99.90;;;;;;4937126;29;20403;-79
2021/05/18 00:27:36;;;;;;;3.28;0.80;;;8.60;99.90;;;;;;4943412;29;20042;-79
2021/05/18 00:30:04;;;;;;;3.53;1.60;;;8.60;99.90;;;;;;4937456;28;20062;-79
2021/05/18 00:32:30;;;;;;;5.35;2.72;;;8.60;99.90;;;;;;4936349;29;20036;-78
2021/05/18 00:34:56;;;;;;;4.80;1.10;;;8.60;99.90;;;;;;4945759;29;20039;-79
2021/05/18 00:37:24;;;;;;;3.13;1.17;;;8.60;99.90;;;;;;4941874;29;20027;-79
2021/05/18 00:39:50;;;;;;;1.58;0.55;;;8.60;99.90;;;;;;4939762;28;20037;-79
2021/05/18 00:42:21;;;;;;;2.75;0.70;;;8.60;99.90;;;;;;4940344;29;20042;-79
2021/05/18 00:44:49;;;;;;;2.83;0.50;;;8.60;99.90;;;;;;4933213;28;20035;-79
2021/05/18 00:47:14;;;;;;;2.78;0.38;;;8.60;99.90;;;;;;4939071;28;20028;-79
2021/05/18 00:49:40;;;;;;;1.33;0.30;;;8.50;99.90;;;;;;4940540;28;20057;-79
2021/05/18 00:52:06;;;;;;;3.33;0.40;;;8.50;99.90;;;;;;4938305;29;20665;-79
2021/05/18 00:54:41;;;;;;;2.17;0.35;;;8.40;99.90;;;;;;4942061;28;20031;-79
2021/05/18 00:59:54;;;;;;;4.43;2.20;;;8.50;99.90;;;;;;4940829;29;20047;-79
2021/05/18 01:02:21;;;;;;;7.78;4.00;;;8.50;99.90;;;;;;4938677;29;20476;-79
2021/05/18 01:04:47;;;;;;;8.38;3.28;;;8.50;99.90;;;;;;4938729;29;20154;-79
2021/05/18 01:07:12;;;;;;;12.88;3.13;;;8.50;99.90;;;;;;4942823;29;20155;-79
2021/05/18 01:09:38;;;;;;;7.78;1.90;;;8.50;99.90;;;;;;4938391;29;20032;-79
2021/05/18 01:12:06;;;;;;;2.70;1.15;;;8.50;99.90;;;;;;4939079;29;20489;-79
2021/05/18 01:14:31;;;;;;;1.83;0.70;;;8.50;99.90;;;;;;4940194;28;20035;-79
2021/05/18 01:16:57;;;;;;;1.83;0.65;;;8.50;99.90;;;;;;4938158;29;20036;-79
2021/05/18 01:19:24;;;;;;;3.60;1.40;;;8.50;99.90;;;;;;4945776;28;20031;-79
2021/05/18 01:21:51;;;;;;;5.38;1.30;;;8.50;99.90;;;;;;4938909;29;20519;-79
2021/05/18 01:24:18;;;;;;;2.90;0.73;;;8.50;99.90;;;;;;4939768;29;20174;-79
2021/05/18 01:26:46;;;;;;;3.58;0.70;;;8.60;99.90;;;;;;4939886;28;20044;-78
2021/05/18 01:29:12;;;;;;;4.72;0.98;;;8.60;99.90;;;;;;4939216;29;20038;-79
2021/05/18 01:31:39;;;;;;;2.63;0.68;;;8.60;99.90;;;;;;4939675;28;20031;-79
2021/05/18 01:34:04;;;;;;;3.75;1.20;;;8.60;99.90;;;;;;4932730;29;20062;-79
2021/05/18 01:36:32;;;;;;;4.03;0.88;;;8.60;99.90;;;;;;4939178;28;20792;-79
2021/05/18 01:39:22;;;;;;;2.08;0.90;;;8.60;99.90;;;;;;4937705;29;20477;-79
2021/05/18 01:44:35;;;;;;;3.15;0.90;;;8.60;99.90;;;;;;4941742;29;20434;-79
2021/05/18 01:47:01;;;;;;;6.22;1.75;;;8.60;99.90;;;;;;4938768;28;20573;-79
2021/05/18 01:49:27;;;;;;;4.05;0.98;;;8.50;99.90;;;;;;4938183;28;20401;-79
2021/05/18 01:52:02;;;;;;;7.90;1.35;;;8.60;99.90;;;;;;4939995;28;20040;-79
2021/05/18 01:54:31;;;;;;;3.10;0.90;;;8.60;99.90;;;;;;4938347;28;20132;-79
2021/05/18 01:57:19;;;;;;;3.88;0.88;;;8.70;99.90;;;;;;4939194;28;20036;-79
2021/05/18 01:59:46;;;;;;;2.53;0.55;;;8.70;99.90;;;;;;4937715;29;20548;-79
2021/05/18 02:02:12;;;;;;;1.98;0.80;;;8.70;99.90;;;;;;4939790;28;20039;-79
2021/05/18 02:04:46;;;;;;;3.55;0.80;;;8.60;99.90;;;;;;4937863;29;20045;-79
2021/05/18 02:07:17;;;;;;;4.80;0.90;;;8.70;99.90;;;;;;4943621;29;20070;-78
2021/05/18 02:09:43;;;;;;;2.80;0.90;;;8.80;99.90;;;;;;4934994;29;20028;-78
2021/05/18 02:12:10;;;;;;;2.25;0.60;;;8.80;99.90;;;;;;4938598;29;20043;-79
2021/05/18 02:14:37;;;;;;;2.95;0.50;;;8.80;99.90;;;;;;4937653;29;20054;-79
2021/05/18 02:25:41;;;;;;;0.75;0.30;;;8.70;99.90;;;;;;4938145;29;20038;-78
2021/05/18 02:28:08;;;;;;;1.85;0.40;;;8.70;99.90;;;;;;4939298;28;20043;-79
2021/05/18 02:30:35;;;;;;;2.33;0.40;;;8.70;99.90;;;;;;4938140;28;20042;-78
2021/05/18 02:33:03;;;;;;;1.58;0.30;;;8.70;99.90;;;;;;4939580;28;20401;-78
2021/05/18 02:35:28;;;;;;;2.72;0.35;;;8.80;99.90;;;;;;4938604;29;20473;-78
2021/05/18 02:37:54;;;;;;;4.13;0.43;;;8.80;99.90;;;;;;4937442;29;20104;-78
2021/05/18 02:40:24;;;;;;;0.82;0.30;;;8.80;99.90;;;;;;4941223;28;20043;-78
2021/05/18 02:42:51;;;;;;;1.58;0.30;;;8.80;99.90;;;;;;4942086;28;20043;-78
2021/05/18 02:50:29;;;;;;;5.03;0.70;;;8.80;99.90;;;;;;4942048;29;20078;-78
2021/05/18 02:52:55;;;;;;;2.45;0.68;;;8.70;99.90;;;;;;4944538;29;20059;-78
2021/05/18 02:55:47;;;;;;;4.22;0.55;;;8.80;99.90;;;;;;4938356;29;20098;-78
2021/05/18 02:58:11;;;;;;;2.75;0.40;;;8.70;99.90;;;;;;4948800;28;20409;-78
2021/05/18 03:00:37;;;;;;;3.13;0.45;;;8.70;99.90;;;;;;4939977;28;20043;-78
2021/05/18 03:03:03;;;;;;;2.35;0.40;;;8.70;99.90;;;;;;4941256;29;20039;-78
2021/05/18 03:05:29;;;;;;;4.07;0.40;;;8.70;99.90;;;;;;4946726;28;20039;-78
2021/05/18 03:07:55;;;;;;;3.22;0.68;;;8.70;99.90;;;;;;4939783;29;20614;-78
2021/05/18 03:10:21;;;;;;;1.65;0.50;;;8.70;99.90;;;;;;4942536;29;20066;-78
2021/05/18 03:12:48;;;;;;;2.05;0.50;;;8.70;99.90;;;;;;4941233;29;20223;-78
2021/05/18 03:15:14;;;;;;;2.45;0.65;;;8.70;99.90;;;;;;4943899;28;20035;-78
2021/05/18 03:17:40;;;;;;;3.08;0.60;;;8.80;99.90;;;;;;4941169;28;20044;-78
2021/05/18 03:20:09;;;;;;;6.30;0.80;;;8.80;99.90;;;;;;4941514;29;20034;-78
2021/05/18 03:22:35;;;;;;;2.30;0.60;;;8.80;99.90;;;;;;4942329;29;20035;-78
2021/05/18 03:25:00;;;;;;;3.10;0.60;;;8.80;99.90;;;;;;4940609;28;20513;-78
2021/05/18 03:27:28;;;;;;;2.72;0.50;;;8.80;99.90;;;;;;4949274;28;20443;-78
2021/05/18 03:29:55;;;;;;;1.55;0.40;;;8.80;99.90;;;;;;4938646;29;20107;-78
2021/05/18 03:35:05;;;;;;;3.13;0.60;;;8.80;99.90;;;;;;4940843;29;20034;-78
2021/05/18 03:40:09;;;;;;;3.25;0.80;;;8.80;99.90;;;;;;4937489;28;20059;-78
2021/05/18 03:42:42;;;;;;;1.33;0.60;;;8.80;99.90;;;;;;4941055;29;20457;-78
2021/05/18 03:45:14;;;;;;;5.43;0.80;;;8.80;99.90;;;;;;4945394;28;20517;-78
2021/05/18 04:17:03;;;;;;;4.18;1.80;;;8.60;99.90;;;;;;4940625;29;20416;-78
2021/05/18 04:19:36;;;;;;;4.03;2.40;;;8.60;99.90;;;;;;4941150;28;20035;-78
2021/05/18 04:22:15;;;;;;;7.07;3.20;;;8.60;99.90;;;;;;4940570;29;20429;-78
2021/05/18 04:41:14;;;;;;;2.78;0.50;;;8.50;99.90;;;;;;4945722;29;20041;-77
2021/05/18 04:52:27;;;;;;;1.88;0.70;;;8.50;99.90;;;;;;4945908;28;20043;-77
2021/05/18 05:00:06;;;;;;;2.70;0.50;;;8.50;99.90;;;;;;4944557;29;20042;-77
2021/05/18 05:08:30;;;;;;;4.90;0.77;;;8.60;99.90;;;;;;4940969;29;20078;-78
2021/05/18 05:16:05;;;;;;;3.33;1.10;;;8.70;99.90;;;;;;4942494;29;20039;-78
2021/05/18 05:18:31;;;;;;;2.33;0.50;;;8.70;99.90;;;;;;4944886;29;20398;-78
2021/05/18 05:20:57;;;;;;;1.90;0.50;;;8.70;99.90;;;;;;4938654;29;20024;-78
2021/05/18 05:23:22;;;;;;;2.38;0.30;;;8.70;99.90;;;;;;4945348;28;20035;-78
2021/05/18 05:25:49;;;;;;;5.00;0.38;;;8.70;99.90;;;;;;4945230;28;20034;-77
2021/05/18 05:28:14;;;;;;;1.73;0.50;;;8.70;99.90;;;;;;4944603;29;20078;-78
2021/05/18 05:30:40;;;;;;;3.08;0.38;;;8.80;99.90;;;;;;4944593;28;20035;-77
2021/05/18 05:33:06;;;;;;;1.70;0.47;;;8.90;99.90;;;;;;4941528;28;20510;-77
2021/05/18 05:35:31;;;;;;;1.75;0.60;;;9.00;99.90;;;;;;4941417;29;20031;-78
2021/05/18 05:37:57;;;;;;;3.83;1.40;;;9.10;99.90;;;;;;4948634;28;20045;-77
2021/05/18 05:40:24;;;;;;;4.97;1.98;;;9.10;99.90;;;;;;4948373;28;20027;-78
2021/05/18 05:42:49;;;;;;;7.03;2.83;;;9.20;99.90;;;;;;4947164;28;20208;-78
2021/05/18 05:45:15;;;;;;;4.43;2.50;;;9.30;99.90;;;;;;4943953;28;20114;-77
2021/05/18 05:47:40;;;;;;;8.35;2.80;;;9.30;99.90;;;;;;4947930;28;20047;-77
2021/05/18 05:50:07;;;;;;;4.97;2.42;;;9.30;99.90;;;;;;4946545;28;20035;-77
2021/05/18 05:52:34;;;;;;;8.93;4.22;;;9.40;99.90;;;;;;4931673;28;20469;-77
2021/05/18 05:55:00;;;;;;;11.48;5.47;;;9.50;99.90;;;;;;4960243;28;20045;-78
2021/05/18 05:57:26;;;;;;;9.20;5.38;;;9.50;99.90;;;;;;4938807;28;20035;-77
2021/05/18 05:59:51;;;;;;;8.98;5.50;;;9.50;99.90;;;;;;4938837;28;20034;-77
2021/05/18 06:02:17;;;;;;;11.70;5.00;;;9.50;99.90;;;;;;4938612;29;20039;-77
2021/05/18 06:04:43;;;;;;;10.38;4.95;;;9.60;99.90;;;;;;4938544;28;20056;-78
2021/05/18 06:07:09;;;;;;;9.77;4.70;;;9.60;99.90;;;;;;4934681;29;20134;-77
2021/05/18 06:09:36;;;;;;;7.22;5.22;;;9.70;99.90;;;;;;4942046;29;20024;-77
2021/05/18 06:15:26;;;;;;;4.22;1.23;;;9.80;99.90;;;;;;4919948;28;20473;-78
2021/05/18 06:29:28;;;;;;;5.65;0.80;;;9.90;99.90;;;;;;4945490;28;20070;-78
2021/05/18 06:47:53;;;;;;;5.85;1.30;;;10.60;99.90;;;;;;4946196;29;20046;-77
2021/05/18 06:52:48;;;;;;;5.00;0.98;;;10.60;99.90;;;;;;4946557;28;20039;-77
2021/05/18 06:55:17;;;;;;;4.60;0.93;;;10.70;99.90;;;;;;4945491;28;20318;-77
2021/05/18 06:57:47;;;;;;;3.40;1.10;;;10.80;99.90;;;;;;4944640;28;20043;-77
2021/05/18 07:00:20;;;;;;;6.15;1.38;;;10.80;99.90;;;;;;4942766;29;20567;-78
2021/05/18 07:02:48;;;;;;;6.18;1.83;;;10.80;99.90;;;;;;4938085;29;20062;-77
2021/05/18 07:07:41;;;;;;;7.07;1.92;;;11.00;99.90;;;;;;4948427;28;20063;-77
2021/05/18 07:10:08;;;;;;;2.83;1.13;;;11.00;99.90;;;;;;4944549;29;20385;-77
2021/05/18 07:12:36;;;;;;;6.72;1.40;;;11.10;99.90;;;;;;4947184;28;20047;-77
2021/05/18 07:15:02;;;;;;;4.00;1.63;;;11.30;99.90;;;;;;4945330;29;20345;-77
2021/05/18 07:17:28;;;;;;;4.65;1.63;;;11.20;99.90;;;;;;4944181;28;20490;-77
2021/05/18 07:19:53;;;;;;;4.47;1.60;;;11.40;99.90;;;;;;4947020;29;20312;-78
2021/05/18 07:22:19;;;;;;;4.22;1.10;;;11.40;99.90;;;;;;4945852;29;20051;-78
2021/05/18 07:24:45;;;;;;;4.10;0.82;;;11.60;99.90;;;;;;4944624;28;20039;-79
2021/05/18 07:27:10;;;;;;;3.13;1.13;;;11.80;99.90;;;;;;4946620;29;20036;-78
2021/05/18 07:29:36;;;;;;;5.18;2.20;;;12.20;99.90;;;;;;4946865;28;20027;-78
2021/05/18 07:32:02;;;;;;;5.20;1.27;;;12.40;99.90;;;;;;4945993;28;20040;-78
2021/05/18 07:34:28;;;;;;;2.53;0.68;;;12.20;99.90;;;;;;4945237;28;20034;-78
2021/05/18 07:36:53;;;;;;;1.48;0.75;;;12.30;99.90;;;;;;4959962;28;20153;-78
2021/05/18 07:39:19;;;;;;;1.95;0.77;;;12.50;99.90;;;;;;4942327;29;20456;-78
2021/05/18 07:41:45;;;;;;;5.60;0.80;;;12.90;99.90;;;;;;4947724;29;20047;-78
2021/05/18 07:44:10;;;;;;;2.85;0.70;;;13.10;99.90;;;;;;4942247;29;20083;-78
2021/05/18 07:46:41;;;;;;;3.22;0.60;;;13.20;99.90;;;;;;4946780;29;20040;-78
2021/05/18 07:49:11;;;;;;;3.50;0.82;;;13.10;99.90;;;;;;4941540;28;20058;-78
2021/05/18 07:59:14;;;;;;;2.08;0.60;;;13.70;99.90;;;;;;4942752;29;20027;-78
2021/05/18 07:59:55;;;;;;;3.30;0.60;;;14.60;99.90;;;;;;4947470;29;20042;-78
2021/05/18 08:05:18;;;;;;;4.07;0.98;;;15.60;99.90;;;;;;4947508;29;20246;-78
2021/05/18 08:07:44;;;;;;;4.60;1.05;;;15.80;99.90;;;;;;4955690;28;20063;-78
2021/05/18 08:12:37;;;;;;;6.13;0.80;;;16.60;99.90;;;;;;4938031;28;20146;-78
2021/05/18 08:48:03;;;;;;;5.68;0.70;;;14.30;99.90;;;;;;4935280;29;20050;-78
2021/05/18 10:37:23;;;;;;;3.83;0.80;;;17.60;98.40;;;;;;4941680;29;20088;-78
2021/05/18 10:40:14;;;;;;;5.28;0.70;;;18.00;97.90;;;;;;4959375;28;20568;-78
2021/05/18 10:43:04;;;;;;;5.50;0.50;;;18.20;99.10;;;;;;4942407;28;20095;-78
2021/05/18 10:45:56;;;;;;;4.32;0.80;;;17.70;99.90;;;;;;4954881;28;20142;-78
2021/05/18 10:48:37;;;;;;;3.88;0.60;;;18.20;99.80;;;;;;4939455;29;20035;-78
2021/05/18 10:51:43;;;;;;;6.32;0.68;;;17.70;99.90;;;;;;4943601;29;20622;-78
2021/05/18 10:54:18;;;;;;;3.42;0.60;;;18.50;99.90;;;;;;4951975;28;20075;-78
2021/05/18 10:57:01;;;;;;;6.72;0.90;;;19.00;99.10;;;;;;4944230;29;20039;-78
2021/05/18 10:59:47;;;;;;;6.00;0.80;;;17.50;99.40;;;;;;4939598;28;20038;-78
2021/05/18 11:02:34;;;;;;;3.15;0.60;;;18.00;99.90;;;;;;4945171;29;20090;-77
2021/05/18 11:05:11;;;;;;;3.78;0.50;;;18.00;99.80;;;;;;4945443;28;20122;-77
2021/05/18 11:07:45;;;;;;;3.00;0.45;;;17.90;99.90;;;;;;4942036;28;20058;-77
2021/05/18 11:10:14;;;;;;;4.85;0.88;;;17.90;96.80;;;;;;4958532;28;20442;-77
2021/05/18 11:12:40;;;;;;;5.05;0.50;;;18.10;98.70;;;;;;4941074;28;20045;-77
2021/05/18 11:15:22;;;;;;;4.47;0.57;;;17.80;97.80;;;;;;4948495;28;20027;-77
2021/05/18 11:17:50;;;;;;;2.45;0.50;;;18.30;99.30;;;;;;4957856;28;20677;-77
2021/05/18 11:21:04;;;;;;;3.58;0.55;;;18.50;96.30;;;;;;4940790;28;20422;-76
2021/05/18 11:23:33;;;;;;;3.40;0.52;;;18.60;97.50;;;;;;4948858;28;20516;-77
2021/05/18 11:26:10;;;;;;;1.73;0.50;;;17.80;95.50;;;;;;4958627;28;20118;-77
2021/05/18 11:28:38;;;;;;;5.03;0.70;;;17.90;97.70;;;;;;4942156;28;20511;-77
2021/05/18 11:31:16;;;;;;;3.92;0.60;;;17.60;98.90;;;;;;4944836;28;20158;-77
2021/05/18 11:33:47;;;;;;;3.97;0.43;;;17.70;96.60;;;;;;4940016;28;20074;-76
2021/05/18 11:36:16;;;;;;;3.67;0.70;;;17.30;98.50;;;;;;4945534;28;20053;-76
2021/05/18 11:38:54;;;;;;;5.38;0.77;;;17.20;96.80;;;;;;4942830;28;20070;-77
2021/05/18 11:41:24;;;;;;;4.88;0.70;;;17.20;98.20;;;;;;4947190;28;20030;-76
2021/05/18 11:43:55;;;;;;;6.53;0.80;;;17.10;98.50;;;;;;4938828;28;20054;-76
2021/05/18 11:46:22;;;;;;;2.47;0.50;;;17.30;98.10;;;;;;4944785;28;20568;-76
2021/05/18 11:49:00;;;;;;;7.15;0.70;;;17.10;98.10;;;;;;4946604;28;20284;-77
2021/05/18 11:51:32;;;;;;;5.10;0.70;;;17.30;97.40;;;;;;4941260;28;20035;-76
2021/05/18 11:54:04;;;;;;;5.32;0.63;;;17.30;98.00;;;;;;4945987;29;20027;-77
2021/05/18 11:56:32;;;;;;;3.95;0.60;;;17.50;98.60;;;;;;4949143;28;20351;-76
2021/05/18 11:58:59;;;;;;;5.22;0.80;;;17.50;96.30;;;;;;4946316;28;20031;-76
2021/05/18 12:01:25;;;;;;;4.47;0.45;;;16.90;97.60;;;;;;4954731;28;20040;-76
2021/05/18 12:04:08;;;;;;;7.53;1.08;;;17.10;97.70;;;;;;4937387;28;20420;-76
2021/05/18 12:06:36;;;;;;;3.78;0.75;;;17.20;99.50;;;;;;4944609;29;20453;-76
2021/05/18 12:09:06;;;;;;;7.15;0.88;;;17.10;98.20;;;;;;4945937;29;20062;-76
2021/05/18 12:11:33;;;;;;;6.70;0.77;;;17.70;99.40;;;;;;4942698;29;20370;-76
2021/05/18 12:13:59;;;;;;;4.32;0.60;;;18.10;98.30;;;;;;4941893;29;20463;-77
2021/05/18 12:16:26;;;;;;;6.45;0.60;;;17.80;97.20;;;;;;4945429;28;20149;-76
2021/05/18 12:18:56;;;;;;;4.10;0.50;;;17.40;98.70;;;;;;4946511;28;20477;-77
2021/05/18 12:21:26;;;;;;;3.67;0.70;;;17.80;98.20;;;;;;4946890;28;20038;-76
2021/05/18 12:24:10;;;;;;;4.78;0.60;;;18.00;97.80;;;;;;4951960;28;20082;-77
2021/05/18 12:26:52;;;;;;;6.45;0.65;;;18.30;96.90;;;;;;4954961;28;20046;-76
2021/05/18 12:29:25;;;;;;;8.85;0.80;;;18.20;96.20;;;;;;4944169;28;20348;-76
2021/05/18 12:31:51;;;;;;;4.32;0.68;;;18.30;96.90;;;;;;4953684;28;20043;-76
2021/05/18 12:34:28;;;;;;;5.93;1.23;;;18.40;98.40;;;;;;4941894;29;20035;-76
2021/05/18 12:36:54;;;;;;;4.47;0.50;;;18.00;94.70;;;;;;4942185;28;20066;-76
2021/05/18 12:39:19;;;;;;;3.83;0.70;;;17.70;97.00;;;;;;4943933;28;20545;-76
2021/05/18 12:42:03;;;;;;;4.65;0.70;;;17.90;98.30;;;;;;4946208;29;20532;-76
2021/05/18 12:45:05;;;;;;;4.57;0.50;;;17.90;97.50;;;;;;4940078;28;20873;-76
2021/05/18 12:47:39;;;;;;;;;;;18.20;97.50;;;;;;4951182;28;20040;-76
2021/05/18 12:50:06;;;;;;;3.75;0.82;;;17.90;97.20;;;;;;4958307;28;20005;-76
2021/05/18 12:52:35;;;;;;;3.88;0.70;;;17.70;95.70;;;;;;4945839;28;20575;-77
2021/05/18 12:55:01;;;;;;;4.78;0.80;;;17.30;97.00;;;;;;4941935;28;20449;-77
2021/05/18 12:57:29;;;;;;;5.40;0.85;;;17.70;96.50;;;;;;4944198;28;20043;-76
2021/05/18 13:00:12;;;;;;;4.88;0.60;;;17.80;96.30;;;;;;4939760;28;20121;-76
2021/05/18 13:02:39;;;;;;;2.72;0.50;;;17.90;96.40;;;;;;4941050;28;20048;-76
2021/05/18 13:05:30;;;;;;;3.70;0.40;;;17.90;96.70;;;;;;4939217;28;20086;-76
2021/05/18 13:08:10;;;;;;;6.20;0.50;;;17.80;95.00;;;;;;4943215;28;20055;-77
2021/05/18 13:13:42;;;;;;;4.22;0.50;;;17.70;96.30;;;;;;4940504;29;20492;-76
2021/05/18 13:16:19;;;;;;;6.57;0.60;;;17.60;96.40;;;;;;4957153;28;20035;-76
2021/05/18 13:19:08;;;;;;;5.55;0.70;;;17.40;95.40;;;;;;4942847;28;20043;-76
2021/05/18 13:21:44;;;;;;;5.07;0.60;;;17.30;96.40;;;;;;4953104;28;20066;-76
2021/05/18 13:24:26;;;;;;;6.32;0.45;;;17.30;96.30;;;;;;4942438;28;20043;-75
2021/05/18 13:26:52;;;;;;;4.60;0.70;;;17.30;95.90;;;;;;4935782;28;20035;-75
2021/05/18 13:29:19;;;;;;;4.65;0.63;;;17.50;97.00;;;;;;4938918;28;20038;-75
2021/05/18 13:31:51;;;;;;;3.63;0.50;;;17.40;94.70;;;;;;4955568;28;20101;-75
2021/05/18 13:34:17;;;;;;;5.72;0.80;;;17.10;96.20;;;;;;4942265;28;20509;-76
2021/05/18 13:36:44;;;;;;;4.90;0.52;;;17.10;96.90;;;;;;4943484;28;20054;-75
2021/05/18 13:39:13;;;;;;;4.47;0.68;;;17.00;94.90;;;;;;4935657;29;20482;-76
2021/05/18 13:41:40;;;;;;;5.07;0.60;;;16.80;95.10;;;;;;4937457;28;20322;-76
2021/05/18 13:44:07;;;;;;;7.95;0.70;;;16.90;95.50;;;;;;4942437;28;20035;-76
2021/05/18 13:46:33;;;;;;;4.00;0.60;;;16.60;96.70;;;;;;4936261;28;20091;-76
2021/05/18 13:48:59;;;;;;;4.90;0.52;;;16.70;96.50;;;;;;4945430;29;20039;-76
2021/05/18 13:51:25;;;;;;;4.07;0.60;;;16.50;97.10;;;;;;4939730;28;20036;-76
2021/05/18 13:53:51;;;;;;;5.75;0.63;;;16.60;97.00;;;;;;4940432;28;20389;-76
2021/05/18 13:56:20;;;;;;;4.13;0.60;;;16.70;95.90;;;;;;4941028;28;20030;-75
2021/05/18 13:58:46;;;;;;;4.60;0.60;;;16.30;96.70;;;;;;4936421;28;20043;-76
2021/05/18 14:01:13;;;;;;;7.93;1.40;;;16.40;96.60;;;;;;4939594;28;20323;-76
2021/05/18 14:03:39;;;;;;;7.88;1.17;;;16.30;97.00;;;;;;4943498;29;20315;-76
2021/05/18 14:06:05;;;;;;;5.25;0.70;;;16.40;96.60;;;;;;4938793;29;20560;-76
2021/05/18 14:08:35;;;;;;;6.05;0.70;;;16.50;96.60;;;;;;4942962;29;20090;-77
2021/05/18 14:11:20;;;;;;;3.70;0.50;;;16.20;96.70;;;;;;4940028;29;20523;-76
2021/05/18 14:13:48;;;;;;;3.55;0.70;;;16.20;96.70;;;;;;4939103;28;20094;-75
2021/05/18 14:16:17;;;;;;;5.53;0.70;;;16.10;96.70;;;;;;4942854;28;20260;-76
2021/05/18 14:18:44;;;;;;;4.70;0.57;;;16.20;97.00;;;;;;4939421;28;20133;-76
2021/05/18 14:21:10;;;;;;;4.57;1.02;;;16.00;95.90;;;;;;4957572;28;21365;-76
2021/05/18 14:26:25;;;;;;;4.07;0.60;;;16.20;96.90;;;;;;4945730;29;20050;-76
2021/05/18 14:28:51;;;;;;;6.15;0.82;;;16.00;97.70;;;;;;4954842;28;20073;-76
2021/05/18 14:31:17;;;;;;;6.45;0.70;;;16.00;96.00;;;;;;4938621;28;20032;-76
2021/05/18 14:33:44;;;;;;;6.47;1.00;;;15.90;95.70;;;;;;4936284;28;20473;-76
2021/05/18 14:36:11;;;;;;;3.65;0.95;;;15.90;96.80;;;;;;4953766;28;20035;-76
2021/05/18 14:38:40;;;;;;;4.72;0.70;;;15.90;97.20;;;;;;4942298;28;20046;-75
2021/05/18 14:46:18;;;;;;;9.18;0.95;;;15.90;96.20;;;;;;4947792;29;20102;-76
2021/05/18 14:56:46;;;;;;;5.10;0.73;;;15.50;97.20;;;;;;4945870;29;20043;-76
2021/05/18 14:59:12;;;;;;;5.88;0.68;;;15.50;96.30;;;;;;4940899;28;20393;-76
2021/05/18 15:01:37;;;;;;;5.53;0.90;;;15.60;97.10;;;;;;4944130;28;20050;-76
2021/05/18 15:04:03;;;;;;;3.30;0.70;;;15.40;97.10;;;;;;4944430;29;20405;-76
2021/05/18 15:06:32;;;;;;;5.40;0.77;;;15.50;97.60;;;;;;4944996;29;20514;-75
2021/05/18 15:08:58;;;;;;;5.15;0.65;;;15.40;97.20;;;;;;4956571;28;20548;-76
2021/05/18 15:11:25;;;;;;;4.43;0.50;;;15.50;96.70;;;;;;4954396;28;20046;-76
2021/05/18 15:13:51;;;;;;;6.70;0.50;;;15.40;96.40;;;;;;4957571;28;20036;-75
2021/05/18 15:16:16;;;;;;;6.10;0.90;;;15.40;96.10;;;;;;4942661;28;20039;-76
2021/05/18 15:18:44;;;;;;;7.22;0.60;;;15.30;97.10;;;;;;4937643;29;20063;-76
2021/05/18 15:21:10;;;;;;;4.20;0.65;;;15.30;97.30;;;;;;4941043;28;20035;-76
2021/05/18 15:23:39;;;;;;;6.43;0.52;;;15.20;99.90;;;;;;4940665;28;20039;-76
2021/05/18 15:26:05;;;;;;;3.17;0.52;;;14.90;99.90;;;;;;4947923;28;20035;-75
2021/05/18 15:28:30;;;;;;;4.57;0.70;;;14.60;99.90;;;;;;4945497;28;20071;-75
2021/05/18 15:30:57;;;;;;;5.95;0.50;;;14.20;99.90;;;;;;4945803;28;20039;-75
2021/05/18 15:33:22;;;;;;;3.03;0.60;;;13.90;99.90;;;;;;4947196;29;20379;-76
2021/05/18 15:35:48;;;;;;;4.72;0.60;;;13.50;99.90;;;;;;4946825;29;20447;-75
2021/05/18 15:38:14;;;;;;;3.40;0.50;;;13.20;99.90;;;;;;4942345;28;20477;-75
2021/05/18 15:40:40;;;;;;;7.18;0.50;;;13.00;99.90;;;;;;4938218;28;20035;-75
2021/05/18 15:43:05;;;;;;;5.75;0.60;;;12.80;99.90;;;;;;4942711;29;20043;-75
2021/05/18 15:45:31;;;;;;;2.88;0.40;;;12.70;99.90;;;;;;4943320;28;20043;-75
2021/05/18 15:47:57;;;;;;;0.82;0.30;;;12.50;99.90;;;;;;4937983;29;20035;-75
2021/05/18 15:50:22;;;;;;;2.25;0.40;;;12.40;99.90;;;;;;4937248;29;20032;-75
2021/05/18 15:52:48;;;;;;;3.42;0.80;;;12.30;99.90;;;;;;4941059;28;20043;-75
2021/05/18 15:55:14;;;;;;;3.60;0.60;;;12.20;99.90;;;;;;4956300;28;20489;-75
2021/05/18 15:57:39;;;;;;;3.50;0.60;;;12.10;99.90;;;;;;4958852;28;20597;-75
2021/05/18 16:00:07;;;;;;;6.43;0.77;;;12.00;99.90;;;;;;4939288;28;20040;-74
2021/05/18 16:02:32;;;;;;;3.22;0.50;;;11.90;99.90;;;;;;4944319;28;20170;-74
2021/05/18 16:04:58;;;;;;;8.93;0.90;;;11.90;99.90;;;;;;4945551;29;20050;-75
2021/05/18 16:07:26;;;;;;;5.93;0.70;;;11.90;99.90;;;;;;4936395;29;20093;-75
2021/05/18 16:09:51;;;;;;;7.15;0.95;;;11.90;99.90;;;;;;4946562;28;20127;-75
2021/05/18 16:12:17;;;;;;;2.35;0.40;;;11.80;99.90;;;;;;4943246;29;20123;-75
2021/05/18 16:14:44;;;;;;;3.70;0.50;;;11.70;99.90;;;;;;4945758;29;20035;-75
2021/05/18 16:17:10;;;;;;;4.22;0.65;;;11.70;99.90;;;;;;4943772;28;20028;-75
2021/05/18 16:19:36;;;;;;;1.38;0.30;;;11.60;99.90;;;;;;4944249;29;20045;-75
2021/05/18 16:22:02;;;;;;;3.20;0.40;;;11.60;99.90;;;;;;4944240;29;20031;-75
2021/05/18 16:24:31;;;;;;;5.43;0.52;;;11.60;99.90;;;;;;4953429;28;20363;-75
2021/05/18 16:26:57;;;;;;;2.33;0.55;;;11.60;99.90;;;;;;4946274;29;20126;-75
2021/05/18 16:29:24;;;;;;;5.63;0.98;;;11.40;99.90;;;;;;4944161;29;20062;-76
2021/05/18 16:31:50;;;;;;;4.15;0.73;;;11.40;99.90;;;;;;4941377;29;20139;-76
2021/05/18 16:34:16;;;;;;;4.53;0.95;;;11.20;99.90;;;;;;4946380;28;20035;-76
2021/05/18 16:36:41;;;;;;;5.35;0.93;;;11.30;99.90;;;;;;4945418;28;20063;-76
2021/05/18 16:39:09;;;;;;;4.85;1.08;;;11.40;99.90;;;;;;4943584;29;20125;-76
2021/05/18 16:41:41;;;;;;;3.28;0.70;;;11.40;99.90;;;;;;4947349;29;20050;-76
2021/05/18 16:44:09;;;;;;;2.45;0.52;;;11.40;99.90;;;;;;4946632;29;20162;-75
2021/05/18 16:46:36;;;;;;;4.80;0.75;;;11.40;99.90;;;;;;4946517;28;20058;-76
2021/05/18 16:49:03;;;;;;;4.60;1.20;;;11.40;99.90;;;;;;4941354;29;20142;-75
2021/05/18 16:51:29;;;;;;;7.05;1.42;;;11.40;99.90;;;;;;4941964;28;20077;-76
2021/05/18 16:53:54;;;;;;;6.30;0.93;;;11.10;99.90;;;;;;4941682;29;20043;-75
2021/05/18 16:56:21;;;;;;;12.02;1.45;;;11.10;99.90;;;;;;4942273;29;20106;-75
2021/05/18 16:58:50;;;;;;;5.30;1.00;;;11.10;99.90;;;;;;4939503;29;20383;-76
2021/05/18 17:01:16;;;;;;;7.28;1.55;;;11.10;99.90;;;;;;4941904;29;20027;-75
2021/05/18 17:03:45;;;;;;;5.55;1.08;;;11.10;99.90;;;;;;4939340;28;20097;-76
2021/05/18 17:06:11;;;;;;;5.72;1.23;;;10.80;99.90;;;;;;4938113;29;20590;-75
2021/05/18 17:08:36;;;;;;;5.43;1.60;;;10.90;99.90;;;;;;4955196;28;20039;-76
2021/05/18 17:11:02;;;;;;;4.20;1.20;;;11.10;99.90;;;;;;4943606;28;20039;-76
2021/05/18 17:13:28;;;;;;;5.72;1.35;;;11.20;99.90;;;;;;4946112;29;20109;-76
2021/05/18 17:15:53;;;;;;;8.18;1.42;;;11.30;99.90;;;;;;4939011;28;20043;-75
2021/05/18 17:18:19;;;;;;;7.20;1.95;;;11.30;99.90;;;;;;4939599;29;20073;-76
2021/05/18 17:20:45;;;;;;;8.65;3.08;;;11.30;99.90;;;;;;4946129;28;20039;-75
2021/05/18 17:23:12;;;;;;;7.95;3.78;;;11.30;99.90;;;;;;4940390;28;20051;-75
2021/05/18 17:25:37;;;;;;;5.82;2.15;;;11.30;99.90;;;;;;4940254;29;20043;-75
2021/05/18 17:28:03;;;;;;;5.63;1.88;;;11.30;99.90;;;;;;4943376;28;20469;-76
2021/05/18 17:30:29;;;;;;;7.03;2.40;;;11.40;99.90;;;;;;4943231;28;20134;-75
2021/05/18 17:32:55;;;;;;;5.00;1.50;;;11.30;99.90;;;;;;4944301;28;20587;-76
2021/05/18 17:35:23;;;;;;;5.85;2.30;;;11.20;99.90;;;;;;4944539;28;20035;-75
2021/05/18 17:37:50;;;;;;;6.60;2.38;;;11.30;99.90;;;;;;4946378;28;20040;-76
2021/05/18 17:40:16;;;;;;;9.38;3.40;;;11.30;99.90;;;;;;4945349;28;20032;-75
2021/05/18 17:42:42;;;;;;;10.68;3.40;;;11.20;99.90;;;;;;4945282;28;20090;-75
2021/05/18 17:45:12;;;;;;;8.65;4.00;;;11.20;99.90;;;;;;4943835;29;20113;-75
2021/05/18 17:47:38;;;;;;;7.68;3.58;;;11.20;99.90;;;;;;4941815;28;20043;-75
2021/05/18 17:50:06;;;;;;;7.15;2.45;;;11.20;99.90;;;;;;4939495;28;20027;-75
2021/05/18 17:52:31;;;;;;;8.52;3.25;;;11.20;99.90;;;;;;4938842;28;20027;-76
2021/05/18 17:54:57;;;;;;;6.40;2.22;;;11.10;99.90;;;;;;4935133;28;20027;-76
2021/05/18 17:57:23;;;;;;;4.63;1.33;;;11.20;99.90;;;;;;4944377;29;20074;-75
2021/05/18 17:59:49;;;;;;;5.97;1.70;;;11.20;99.90;;;;;;4941024;29;20035;-75
2021/05/18 18:02:14;;;;;;;6.28;1.40;;;11.20;99.90;;;;;;4942799;28;20101;-75